createdAt,value
2018-03-04T00:02:51.877Z,81.63
2018-03-04T00:05:49.197Z,76.70
2018-03-04T00:08:53.694Z,73.23
2018-03-04T00:15:38.012Z,73.73
2018-03-04T00:19:03.408Z,76.07
2018-03-04T00:21:53.483Z,73.67
2018-03-04T00:24:44.286Z,74.57
2018-03-04T00:36:02.521Z,75.83
2018-03-04T00:39:04.599Z,76.30
2018-03-04T00:42:57.181Z,77.63
2018-03-04T00:46:06.428Z,71.57
2018-03-04T00:49:35.869Z,75.47
2018-03-04T00:52:28.687Z,74.13
2018-03-04T00:55:31.336Z,72.73
2018-03-04T01:01:52.506Z,76.00
2018-03-04T01:04:49.542Z,75.10
2018-03-04T01:07:47.572Z,71.67
2018-03-04T01:10:34.082Z,75.53
2018-03-04T01:13:40.648Z,73.30
2018-03-04T01:16:34.009Z,77.63
2018-03-04T01:22:19.901Z,70.97
2018-03-04T01:25:09.506Z,70.80
2018-03-04T01:31:07.666Z,87.90
2018-03-04T01:34:10.392Z,75.97
2018-03-04T01:37:32.072Z,80.27
2018-03-04T01:57:33.896Z,77.07
2018-03-04T02:00:25.252Z,75.07
2018-03-04T02:07:40.053Z,76.40
2018-03-04T02:21:09.319Z,73.77
2018-03-04T02:23:55.019Z,76.10
2018-03-04T02:27:14.178Z,76.83
2018-03-04T02:30:12.996Z,77.93
2018-03-04T02:33:14.920Z,74.60
2018-03-04T02:35:59.526Z,75.20
2018-03-04T02:38:54.188Z,74.97
2018-03-04T02:41:43.348Z,69.47
2018-03-04T02:44:33.643Z,70.40
2018-03-04T02:47:45.063Z,71.67
2018-03-04T02:50:42.115Z,69.87
2018-03-04T02:53:44.721Z,70.47
2018-03-04T02:56:37.324Z,70.23
2018-03-04T02:59:29.874Z,69.57
2018-03-04T03:02:23.749Z,68.30
2018-03-04T03:05:25.071Z,67.77
2018-03-04T03:08:08.505Z,69.50
2018-03-04T03:10:53.630Z,69.37
2018-03-04T03:13:46.682Z,66.90
2018-03-04T03:16:39.477Z,69.83
2018-03-04T03:19:27.827Z,70.10
2018-03-04T03:22:26.920Z,65.33
2018-03-04T03:25:14.442Z,70.80
2018-03-04T03:28:04.729Z,66.15
2018-03-04T03:30:49.475Z,66.67
2018-03-04T03:33:43.652Z,61.50
2018-03-04T03:39:12.239Z,65.07
2018-03-04T03:42:00.417Z,61.27
2018-03-04T03:44:39.334Z,61.33
2018-03-04T03:47:30.018Z,65.17
2018-03-04T03:50:15.798Z,63.67
2018-03-04T03:53:01.357Z,61.63
2018-03-04T03:55:54.550Z,58.27
2018-03-04T03:58:44.080Z,63.03
2018-03-04T04:01:25.371Z,60.77
2018-03-04T04:06:58.361Z,59.30
2018-03-04T04:09:46.521Z,60.20
2018-03-04T04:12:31.846Z,56.90
2018-03-04T04:15:16.726Z,58.17
2018-03-04T04:18:03.621Z,57.37
2018-03-04T04:23:49.348Z,63.80
2018-03-04T04:29:24.835Z,67.60
2018-03-04T04:32:13.393Z,69.03
2018-03-04T04:34:57.670Z,62.47
2018-03-04T04:37:48.527Z,66.30
2018-03-04T04:40:33.183Z,72.73
2018-03-04T04:43:37.023Z,70.33
2018-03-04T04:47:00.721Z,67.57
2018-03-04T04:49:45.575Z,68.30
2018-03-04T04:52:45.191Z,64.17
2018-03-04T04:55:24.435Z,62.80
2018-03-04T04:58:06.992Z,58.53
2018-03-04T05:00:45.952Z,59.43
2018-03-04T05:03:26.594Z,60.43
2018-03-04T05:06:29.079Z,54.10
2018-03-04T05:09:09.259Z,57.93
2018-03-04T05:12:11.292Z,57.60
2018-03-04T05:14:52.215Z,59.03
2018-03-04T05:17:40.985Z,58.67
2018-03-04T05:26:47.557Z,57.10
2018-03-04T05:29:45.343Z,57.47
2018-03-04T05:32:22.785Z,58.37
2018-03-04T05:35:10.832Z,55.50
2018-03-04T05:41:30.343Z,52.67
2018-03-04T05:44:21.490Z,64.50
2018-03-04T05:47:03.227Z,56.27
2018-03-04T05:49:48.284Z,56.83
2018-03-04T05:52:51.488Z,52.77
2018-03-04T05:58:53.138Z,52.57
2018-03-04T06:01:53.987Z,54.10
2018-03-04T06:04:57.847Z,51.87
2018-03-04T06:07:55.499Z,55.30
2018-03-04T06:10:50.187Z,53.67
2018-03-04T06:13:51.910Z,50.07
2018-03-04T09:16:41.620Z,33.17
2018-03-04T09:19:29.974Z,33.27
2018-03-04T09:23:24.755Z,30.27
2018-03-04T09:35:31.156Z,33.33
2018-03-04T09:45:17.907Z,32.90
2018-03-04T09:48:10.461Z,32.00
2018-03-04T09:51:03.015Z,28.33
2018-03-04T10:15:20.540Z,29.45
2018-03-04T10:34:13.144Z,29.77
2018-03-04T10:37:41.040Z,29.10
2018-03-04T10:54:15.115Z,26.87
2018-03-04T11:12:55.870Z,34.08
2018-03-04T11:16:07.025Z,29.03
2018-03-04T11:19:31.957Z,27.50
2018-03-04T11:33:03.987Z,31.00
2018-03-04T11:42:51.515Z,29.93
2018-03-04T11:46:06.872Z,29.90
2018-03-04T11:49:09.669Z,28.80
2018-03-04T12:12:58.862Z,25.27
2018-03-04T12:15:44.741Z,22.73
2018-03-04T12:19:08.766Z,44.93
2018-03-04T12:22:04.260Z,21.70
2018-03-04T12:57:44.390Z,18.90
2018-03-04T13:34:46.691Z,13.70
2018-03-04T13:52:34.202Z,9.60
2018-03-04T13:58:59.714Z,10.47
2018-03-04T14:26:14.421Z,14.60
2018-03-04T14:29:05.158Z,10.60
2018-03-04T14:32:12.616Z,12.27
2018-03-04T16:17:48.332Z,15.83
2018-03-04T16:43:27.036Z,9.77
2018-03-04T17:05:17.596Z,10.87
2018-03-04T17:11:23.505Z,9.73
2018-03-04T17:14:38.387Z,10.32
2018-03-04T17:17:38.590Z,10.37
2018-03-04T17:31:41.872Z,9.47
2018-03-04T20:28:51.065Z,27.00
2018-03-04T20:31:57.442Z,28.87
2018-03-04T20:35:15.384Z,29.33
2018-03-04T20:42:01.073Z,27.67
2018-03-04T20:47:49.080Z,32.40
2018-03-04T21:00:41.766Z,32.23
2018-03-04T21:03:55.282Z,29.50
2018-03-04T21:19:32.677Z,31.07
2018-03-04T21:31:37.122Z,33.13
2018-03-04T21:40:22.676Z,34.80
2018-03-04T21:46:04.767Z,32.50
2018-03-04T21:54:47.394Z,34.07
2018-03-04T22:01:10.054Z,34.53
2018-03-04T22:03:58.531Z,34.17
2018-03-04T22:06:49.281Z,35.60
2018-03-04T22:09:43.931Z,35.27
2018-03-04T22:12:42.304Z,33.47
2018-03-04T22:15:41.274Z,34.47
2018-03-04T22:18:36.454Z,33.53
2018-03-04T22:21:33.677Z,38.97
2018-03-04T22:24:56.420Z,37.43
2018-03-04T22:27:41.159Z,32.53
2018-03-04T22:30:56.816Z,30.70
2018-03-04T22:33:54.242Z,28.90
2018-03-04T22:36:34.537Z,25.97
2018-03-04T22:39:19.777Z,25.30
2018-03-04T22:54:36.373Z,15.07
2018-03-04T22:57:24.343Z,13.87
2018-03-04T23:03:48.972Z,13.97
2018-03-04T23:06:32.714Z,12.33
2018-03-04T23:09:30.951Z,11.13
2018-03-04T23:15:16.803Z,12.50
2018-03-04T23:18:06.640Z,8.73
2018-03-04T23:20:52.045Z,9.53
2018-03-04T23:26:39.334Z,11.33
2018-03-04T23:30:04.901Z,12.80
2018-03-04T23:32:54.075Z,8.57
